sensor_id;sensor_type;location;lat;lon;timestamp;P1;durP1;ratioP1;P2;durP2;ratioP2
31764;SDS011;18338;53.240;8.798;2022-08-25T00:02:11;4.43;;;3.25;;
31764;SDS011;18338;53.240;8.798;2022-08-25T00:04:38;4.18;;;3.10;;
31764;SDS011;18338;53.240;8.798;2022-08-25T00:07:07;3.40;;;3.10;;
31764;SDS011;18338;53.240;8.798;2022-08-25T00:09:34;3.30;;;3.00;;
31764;SDS011;18338;53.240;8.798;2022-08-25T00:12:01;7.13;;;3.53;;
31764;SDS011;18338;53.240;8.798;2022-08-25T00:14:30;3.63;;;3.08;;
31764;SDS011;18338;53.240;8.798;2022-08-25T00:16:59;3.33;;;3.00;;
31764;SDS011;18338;53.240;8.798;2022-08-25T00:19:29;3.95;;;3.33;;
31764;SDS011;18338;53.240;8.798;2022-08-25T00:21:58;4.03;;;3.58;;
31764;SDS011;18338;53.240;8.798;2022-08-25T00:24:26;4.53;;;3.03;;
31764;SDS011;18338;53.240;8.798;2022-08-25T00:26:53;3.22;;;2.92;;
31764;SDS011;18338;53.240;8.798;2022-08-25T00:29:22;4.85;;;3.25;;
31764;SDS011;18338;53.240;8.798;2022-08-25T00:31:51;5.45;;;3.38;;
31764;SDS011;18338;53.240;8.798;2022-08-25T00:34:20;3.47;;;3.17;;
31764;SDS011;18338;53.240;8.798;2022-08-25T00:36:49;4.35;;;3.30;;
31764;SDS011;18338;53.240;8.798;2022-08-25T00:39:17;3.33;;;3.03;;
31764;SDS011;18338;53.240;8.798;2022-08-25T00:41:46;4.70;;;3.83;;
31764;SDS011;18338;53.240;8.798;2022-08-25T00:44:14;4.07;;;3.67;;
31764;SDS011;18338;53.240;8.798;2022-08-25T00:46:45;5.30;;;4.03;;
31764;SDS011;18338;53.240;8.798;2022-08-25T00:49:17;4.18;;;3.67;;
31764;SDS011;18338;53.240;8.798;2022-08-25T00:52:04;5.28;;;3.42;;
31764;SDS011;18338;53.240;8.798;2022-08-25T00:54:40;3.63;;;3.28;;
31764;SDS011;18338;53.240;8.798;2022-08-25T00:57:20;4.55;;;3.65;;
31764;SDS011;18338;53.240;8.798;2022-08-25T01:00:00;4.53;;;3.80;;
31764;SDS011;18338;53.240;8.798;2022-08-25T01:02:32;9.63;;;3.83;;
31764;SDS011;18338;53.240;8.798;2022-08-25T01:04:59;5.70;;;3.70;;
31764;SDS011;18338;53.240;8.798;2022-08-25T01:07:26;5.97;;;4.03;;
31764;SDS011;18338;53.240;8.798;2022-08-25T01:09:53;4.05;;;3.65;;
31764;SDS011;18338;53.240;8.798;2022-08-25T01:12:20;8.32;;;4.40;;
31764;SDS011;18338;53.240;8.798;2022-08-25T01:14:47;3.70;;;3.40;;
31764;SDS011;18338;53.240;8.798;2022-08-25T01:17:15;5.47;;;3.80;;
31764;SDS011;18338;53.240;8.798;2022-08-25T01:19:43;5.07;;;3.95;;
31764;SDS011;18338;53.240;8.798;2022-08-25T01:22:10;4.78;;;4.32;;
31764;SDS011;18338;53.240;8.798;2022-08-25T01:24:39;5.28;;;4.22;;
31764;SDS011;18338;53.240;8.798;2022-08-25T01:27:12;4.20;;;3.78;;
31764;SDS011;18338;53.240;8.798;2022-08-25T01:29:38;4.40;;;4.00;;
31764;SDS011;18338;53.240;8.798;2022-08-25T01:32:06;4.82;;;4.40;;
31764;SDS011;18338;53.240;8.798;2022-08-25T01:34:37;6.20;;;4.30;;
31764;SDS011;18338;53.240;8.798;2022-08-25T01:37:06;5.82;;;4.30;;
31764;SDS011;18338;53.240;8.798;2022-08-25T01:39:39;4.68;;;4.28;;
31764;SDS011;18338;53.240;8.798;2022-08-25T01:44:37;4.13;;;3.72;;
31764;SDS011;18338;53.240;8.798;2022-08-25T01:47:08;5.15;;;4.40;;
31764;SDS011;18338;53.240;8.798;2022-08-25T01:49:35;4.68;;;4.22;;
31764;SDS011;18338;53.240;8.798;2022-08-25T01:52:09;6.63;;;4.80;;
31764;SDS011;18338;53.240;8.798;2022-08-25T01:54:40;4.55;;;4.07;;
31764;SDS011;18338;53.240;8.798;2022-08-25T01:57:08;4.65;;;4.25;;
31764;SDS011;18338;53.240;8.798;2022-08-25T01:59:34;5.07;;;4.40;;
31764;SDS011;18338;53.240;8.798;2022-08-25T02:02:02;4.60;;;4.20;;
31764;SDS011;18338;53.240;8.798;2022-08-25T02:04:30;6.22;;;4.80;;
31764;SDS011;18338;53.240;8.798;2022-08-25T02:07:03;4.97;;;4.50;;
31764;SDS011;18338;53.240;8.798;2022-08-25T02:09:32;5.55;;;4.68;;
31764;SDS011;18338;53.240;8.798;2022-08-25T02:11:59;5.75;;;4.40;;
31764;SDS011;18338;53.240;8.798;2022-08-25T02:14:26;5.00;;;4.50;;
31764;SDS011;18338;53.240;8.798;2022-08-25T02:16:54;4.88;;;4.43;;
31764;SDS011;18338;53.240;8.798;2022-08-25T02:19:21;5.85;;;4.88;;
31764;SDS011;18338;53.240;8.798;2022-08-25T02:21:49;4.93;;;4.43;;
31764;SDS011;18338;53.240;8.798;2022-08-25T02:24:16;5.47;;;4.95;;
31764;SDS011;18338;53.240;8.798;2022-08-25T02:26:43;8.48;;;5.30;;
31764;SDS011;18338;53.240;8.798;2022-08-25T02:29:10;6.00;;;5.18;;
31764;SDS011;18338;53.240;8.798;2022-08-25T02:31:37;5.43;;;4.90;;
31764;SDS011;18338;53.240;8.798;2022-08-25T02:34:05;5.38;;;4.85;;
31764;SDS011;18338;53.240;8.798;2022-08-25T02:36:32;4.90;;;4.40;;
31764;SDS011;18338;53.240;8.798;2022-08-25T02:39:00;5.75;;;5.15;;
31764;SDS011;18338;53.240;8.798;2022-08-25T02:41:29;5.57;;;5.07;;
31764;SDS011;18338;53.240;8.798;2022-08-25T02:43:57;5.70;;;4.95;;
31764;SDS011;18338;53.240;8.798;2022-08-25T02:46:24;8.82;;;5.45;;
31764;SDS011;18338;53.240;8.798;2022-08-25T02:48:51;7.75;;;5.50;;
31764;SDS011;18338;53.240;8.798;2022-08-25T02:51:19;6.53;;;5.45;;
31764;SDS011;18338;53.240;8.798;2022-08-25T02:53:47;6.85;;;5.95;;
31764;SDS011;18338;53.240;8.798;2022-08-25T02:56:14;7.18;;;5.82;;
31764;SDS011;18338;53.240;8.798;2022-08-25T02:58:41;6.72;;;6.13;;
31764;SDS011;18338;53.240;8.798;2022-08-25T03:01:08;6.53;;;5.78;;
31764;SDS011;18338;53.240;8.798;2022-08-25T03:03:41;6.35;;;5.82;;
31764;SDS011;18338;53.240;8.798;2022-08-25T03:06:10;6.88;;;6.25;;
31764;SDS011;18338;53.240;8.798;2022-08-25T03:08:38;6.28;;;5.78;;
31764;SDS011;18338;53.240;8.798;2022-08-25T03:11:06;6.93;;;6.32;;
31764;SDS011;18338;53.240;8.798;2022-08-25T03:13:34;7.18;;;6.47;;
31764;SDS011;18338;53.240;8.798;2022-08-25T03:16:02;7.90;;;7.10;;
31764;SDS011;18338;53.240;8.798;2022-08-25T03:18:36;7.38;;;6.70;;
31764;SDS011;18338;53.240;8.798;2022-08-25T03:21:05;8.00;;;6.38;;
31764;SDS011;18338;53.240;8.798;2022-08-25T03:23:32;8.00;;;7.20;;
31764;SDS011;18338;53.240;8.798;2022-08-25T03:25:59;7.95;;;7.15;;
31764;SDS011;18338;53.240;8.798;2022-08-25T03:28:44;7.53;;;6.82;;
31764;SDS011;18338;53.240;8.798;2022-08-25T03:31:11;8.32;;;7.55;;
31764;SDS011;18338;53.240;8.798;2022-08-25T03:33:38;7.63;;;6.82;;
31764;SDS011;18338;53.240;8.798;2022-08-25T03:36:05;9.13;;;7.95;;
31764;SDS011;18338;53.240;8.798;2022-08-25T03:38:33;8.43;;;7.57;;
31764;SDS011;18338;53.240;8.798;2022-08-25T03:41:13;10.13;;;7.68;;
31764;SDS011;18338;53.240;8.798;2022-08-25T03:43:41;8.90;;;8.00;;
31764;SDS011;18338;53.240;8.798;2022-08-25T03:46:14;10.07;;;8.45;;
31764;SDS011;18338;53.240;8.798;2022-08-25T03:48:42;9.10;;;8.23;;
31764;SDS011;18338;53.240;8.798;2022-08-25T03:51:09;9.13;;;8.00;;
31764;SDS011;18338;53.240;8.798;2022-08-25T03:53:36;8.95;;;8.05;;
31764;SDS011;18338;53.240;8.798;2022-08-25T03:56:02;8.65;;;7.82;;
31764;SDS011;18338;53.240;8.798;2022-08-25T03:58:29;10.63;;;8.90;;
31764;SDS011;18338;53.240;8.798;2022-08-25T04:00:56;10.13;;;8.50;;
31764;SDS011;18338;53.240;8.798;2022-08-25T04:03:25;9.38;;;8.40;;
31764;SDS011;18338;53.240;8.798;2022-08-25T04:05:52;9.95;;;8.43;;
31764;SDS011;18338;53.240;8.798;2022-08-25T04:08:21;13.15;;;9.75;;
31764;SDS011;18338;53.240;8.798;2022-08-25T04:10:48;11.25;;;9.23;;
31764;SDS011;18338;53.240;8.798;2022-08-25T04:13:14;9.88;;;8.88;;
31764;SDS011;18338;53.240;8.798;2022-08-25T04:15:42;9.75;;;8.80;;
31764;SDS011;18338;53.240;8.798;2022-08-25T04:18:09;11.25;;;9.13;;
31764;SDS011;18338;53.240;8.798;2022-08-25T04:20:39;11.88;;;9.75;;
31764;SDS011;18338;53.240;8.798;2022-08-25T04:23:11;10.00;;;8.85;;
31764;SDS011;18338;53.240;8.798;2022-08-25T04:25:39;16.65;;;10.27;;
31764;SDS011;18338;53.240;8.798;2022-08-25T04:28:11;17.88;;;10.70;;
31764;SDS011;18338;53.240;8.798;2022-08-25T04:30:40;14.68;;;10.68;;
31764;SDS011;18338;53.240;8.798;2022-08-25T04:33:08;12.40;;;11.18;;
31764;SDS011;18338;53.240;8.798;2022-08-25T04:35:35;13.23;;;11.85;;
31764;SDS011;18338;53.240;8.798;2022-08-25T04:38:03;14.52;;;12.15;;
31764;SDS011;18338;53.240;8.798;2022-08-25T04:40:30;15.18;;;12.68;;
31764;SDS011;18338;53.240;8.798;2022-08-25T04:42:58;13.63;;;11.30;;
31764;SDS011;18338;53.240;8.798;2022-08-25T04:45:24;13.82;;;11.05;;
31764;SDS011;18338;53.240;8.798;2022-08-25T04:47:51;13.05;;;11.80;;
31764;SDS011;18338;53.240;8.798;2022-08-25T04:50:20;17.40;;;13.68;;
31764;SDS011;18338;53.240;8.798;2022-08-25T04:52:46;14.50;;;13.02;;
31764;SDS011;18338;53.240;8.798;2022-08-25T04:55:14;14.55;;;12.98;;
31764;SDS011;18338;53.240;8.798;2022-08-25T04:57:44;16.58;;;13.00;;
31764;SDS011;18338;53.240;8.798;2022-08-25T05:00:11;16.90;;;14.43;;
31764;SDS011;18338;53.240;8.798;2022-08-25T05:02:38;15.52;;;13.82;;
31764;SDS011;18338;53.240;8.798;2022-08-25T05:05:05;15.13;;;13.65;;
31764;SDS011;18338;53.240;8.798;2022-08-25T05:07:32;15.23;;;13.57;;
31764;SDS011;18338;53.240;8.798;2022-08-25T05:10:00;15.55;;;13.93;;
31764;SDS011;18338;53.240;8.798;2022-08-25T05:12:27;16.70;;;14.25;;
31764;SDS011;18338;53.240;8.798;2022-08-25T05:14:57;16.55;;;14.02;;
31764;SDS011;18338;53.240;8.798;2022-08-25T05:17:44;15.82;;;13.93;;
31764;SDS011;18338;53.240;8.798;2022-08-25T05:20:11;15.60;;;13.60;;
31764;SDS011;18338;53.240;8.798;2022-08-25T05:22:38;15.05;;;13.15;;
31764;SDS011;18338;53.240;8.798;2022-08-25T05:25:04;17.45;;;13.65;;
31764;SDS011;18338;53.240;8.798;2022-08-25T05:27:32;17.80;;;14.32;;
31764;SDS011;18338;53.240;8.798;2022-08-25T05:30:00;17.15;;;13.63;;
31764;SDS011;18338;53.240;8.798;2022-08-25T05:32:27;19.27;;;13.18;;
31764;SDS011;18338;53.240;8.798;2022-08-25T05:34:54;15.00;;;13.43;;
31764;SDS011;18338;53.240;8.798;2022-08-25T05:37:21;15.68;;;14.07;;
31764;SDS011;18338;53.240;8.798;2022-08-25T05:39:47;17.92;;;14.35;;
31764;SDS011;18338;53.240;8.798;2022-08-25T05:42:15;17.90;;;14.65;;
31764;SDS011;18338;53.240;8.798;2022-08-25T05:44:42;15.35;;;13.43;;
31764;SDS011;18338;53.240;8.798;2022-08-25T05:47:09;14.93;;;12.90;;
31764;SDS011;18338;53.240;8.798;2022-08-25T05:49:35;13.93;;;12.63;;
31764;SDS011;18338;53.240;8.798;2022-08-25T05:52:02;14.27;;;12.80;;
31764;SDS011;18338;53.240;8.798;2022-08-25T05:54:30;14.65;;;13.23;;
31764;SDS011;18338;53.240;8.798;2022-08-25T05:56:58;13.98;;;12.52;;
31764;SDS011;18338;53.240;8.798;2022-08-25T05:59:26;13.02;;;11.65;;
31764;SDS011;18338;53.240;8.798;2022-08-25T06:01:55;14.35;;;12.88;;
31764;SDS011;18338;53.240;8.798;2022-08-25T06:04:40;12.98;;;11.85;;
31764;SDS011;18338;53.240;8.798;2022-08-25T06:07:07;12.98;;;11.65;;
31764;SDS011;18338;53.240;8.798;2022-08-25T06:09:38;13.68;;;12.25;;
31764;SDS011;18338;53.240;8.798;2022-08-25T06:12:07;12.35;;;11.15;;
31764;SDS011;18338;53.240;8.798;2022-08-25T06:14:34;13.48;;;11.88;;
31764;SDS011;18338;53.240;8.798;2022-08-25T06:17:02;11.95;;;10.80;;
31764;SDS011;18338;53.240;8.798;2022-08-25T06:19:29;13.38;;;11.70;;
31764;SDS011;18338;53.240;8.798;2022-08-25T06:21:58;13.98;;;12.68;;
31764;SDS011;18338;53.240;8.798;2022-08-25T06:24:25;13.65;;;12.27;;
31764;SDS011;18338;53.240;8.798;2022-08-25T06:26:53;13.82;;;12.35;;
31764;SDS011;18338;53.240;8.798;2022-08-25T06:29:20;11.98;;;10.93;;
31764;SDS011;18338;53.240;8.798;2022-08-25T06:31:47;11.77;;;10.40;;
31764;SDS011;18338;53.240;8.798;2022-08-25T06:34:15;12.10;;;10.90;;
31764;SDS011;18338;53.240;8.798;2022-08-25T06:36:44;14.15;;;10.65;;
31764;SDS011;18338;53.240;8.798;2022-08-25T06:39:14;11.85;;;10.48;;
31764;SDS011;18338;53.240;8.798;2022-08-25T06:41:42;13.77;;;11.13;;
31764;SDS011;18338;53.240;8.798;2022-08-25T06:44:10;12.65;;;11.27;;
31764;SDS011;18338;53.240;8.798;2022-08-25T06:46:37;12.23;;;11.07;;
31764;SDS011;18338;53.240;8.798;2022-08-25T06:49:04;14.25;;;10.90;;
31764;SDS011;18338;53.240;8.798;2022-08-25T06:51:32;11.38;;;10.40;;
31764;SDS011;18338;53.240;8.798;2022-08-25T06:54:03;11.32;;;10.25;;
31764;SDS011;18338;53.240;8.798;2022-08-25T06:56:31;11.15;;;10.05;;
31764;SDS011;18338;53.240;8.798;2022-08-25T06:59:00;10.52;;;9.52;;
31764;SDS011;18338;53.240;8.798;2022-08-25T07:01:30;11.10;;;9.95;;
31764;SDS011;18338;53.240;8.798;2022-08-25T07:03:59;11.88;;;9.55;;
31764;SDS011;18338;53.240;8.798;2022-08-25T07:06:28;11.60;;;10.25;;
31764;SDS011;18338;53.240;8.798;2022-08-25T07:08:57;11.80;;;9.40;;
31764;SDS011;18338;53.240;8.798;2022-08-25T07:11:24;14.85;;;9.98;;
31764;SDS011;18338;53.240;8.798;2022-08-25T07:13:52;13.15;;;9.77;;
31764;SDS011;18338;53.240;8.798;2022-08-25T07:16:19;11.45;;;10.35;;
31764;SDS011;18338;53.240;8.798;2022-08-25T07:18:47;10.98;;;9.75;;
31764;SDS011;18338;53.240;8.798;2022-08-25T07:21:14;23.42;;;9.98;;
31764;SDS011;18338;53.240;8.798;2022-08-25T07:23:41;15.52;;;11.40;;
31764;SDS011;18338;53.240;8.798;2022-08-25T07:26:12;18.92;;;10.30;;
31764;SDS011;18338;53.240;8.798;2022-08-25T07:29:02;23.17;;;9.68;;
31764;SDS011;18338;53.240;8.798;2022-08-25T07:31:32;11.65;;;10.23;;
31764;SDS011;18338;53.240;8.798;2022-08-25T07:33:59;17.20;;;9.32;;
31764;SDS011;18338;53.240;8.798;2022-08-25T07:36:45;12.90;;;8.73;;
31764;SDS011;18338;53.240;8.798;2022-08-25T07:39:12;10.38;;;8.52;;
31764;SDS011;18338;53.240;8.798;2022-08-25T07:41:39;9.52;;;8.63;;
31764;SDS011;18338;53.240;8.798;2022-08-25T07:44:08;9.52;;;8.10;;
31764;SDS011;18338;53.240;8.798;2022-08-25T07:46:37;9.40;;;8.00;;
31764;SDS011;18338;53.240;8.798;2022-08-25T07:49:04;11.30;;;8.63;;
31764;SDS011;18338;53.240;8.798;2022-08-25T07:51:42;11.07;;;8.35;;
31764;SDS011;18338;53.240;8.798;2022-08-25T07:54:29;13.07;;;9.05;;
31764;SDS011;18338;53.240;8.798;2022-08-25T07:57:00;8.40;;;7.55;;
31764;SDS011;18338;53.240;8.798;2022-08-25T07:59:28;9.52;;;8.55;;
31764;SDS011;18338;53.240;8.798;2022-08-25T08:02:05;9.73;;;8.35;;
31764;SDS011;18338;53.240;8.798;2022-08-25T08:04:44;10.38;;;8.13;;
31764;SDS011;18338;53.240;8.798;2022-08-25T08:07:18;8.30;;;7.35;;
31764;SDS011;18338;53.240;8.798;2022-08-25T08:09:48;9.85;;;8.02;;
31764;SDS011;18338;53.240;8.798;2022-08-25T08:12:30;8.40;;;7.65;;
31764;SDS011;18338;53.240;8.798;2022-08-25T08:14:59;8.13;;;7.32;;
31764;SDS011;18338;53.240;8.798;2022-08-25T08:17:26;9.88;;;7.57;;
31764;SDS011;18338;53.240;8.798;2022-08-25T08:19:53;9.63;;;7.35;;
31764;SDS011;18338;53.240;8.798;2022-08-25T08:22:20;10.52;;;8.18;;
31764;SDS011;18338;53.240;8.798;2022-08-25T08:24:47;8.45;;;7.65;;
31764;SDS011;18338;53.240;8.798;2022-08-25T08:27:21;10.88;;;7.97;;
31764;SDS011;18338;53.240;8.798;2022-08-25T08:29:48;7.75;;;6.95;;
31764;SDS011;18338;53.240;8.798;2022-08-25T08:32:15;9.73;;;7.22;;
31764;SDS011;18338;53.240;8.798;2022-08-25T08:34:43;7.47;;;6.47;;
31764;SDS011;18338;53.240;8.798;2022-08-25T08:37:16;6.40;;;5.80;;
31764;SDS011;18338;53.240;8.798;2022-08-25T08:39:47;6.55;;;5.55;;
31764;SDS011;18338;53.240;8.798;2022-08-25T08:45:10;6.43;;;5.10;;
31764;SDS011;18338;53.240;8.798;2022-08-25T08:48:00;5.80;;;5.30;;
31764;SDS011;18338;53.240;8.798;2022-08-25T08:53:15;7.47;;;5.47;;
31764;SDS011;18338;53.240;8.798;2022-08-25T08:55:57;5.97;;;5.47;;
31764;SDS011;18338;53.240;8.798;2022-08-25T08:58:27;7.80;;;5.57;;
31764;SDS011;18338;53.240;8.798;2022-08-25T09:01:26;6.50;;;5.00;;
31764;SDS011;18338;53.240;8.798;2022-08-25T09:04:08;7.60;;;5.30;;
31764;SDS011;18338;53.240;8.798;2022-08-25T09:06:42;5.82;;;5.32;;
31764;SDS011;18338;53.240;8.798;2022-08-25T09:09:11;5.82;;;5.32;;
31764;SDS011;18338;53.240;8.798;2022-08-25T09:20:07;6.35;;;5.75;;
31764;SDS011;18338;53.240;8.798;2022-08-25T09:28:46;6.40;;;5.45;;
31764;SDS011;18338;53.240;8.798;2022-08-25T09:31:28;5.78;;;5.22;;
31764;SDS011;18338;53.240;8.798;2022-08-25T09:34:02;6.40;;;5.45;;
31764;SDS011;18338;53.240;8.798;2022-08-25T09:36:32;7.70;;;5.00;;
31764;SDS011;18338;53.240;8.798;2022-08-25T09:39:04;8.48;;;5.57;;
31764;SDS011;18338;53.240;8.798;2022-08-25T09:41:43;7.05;;;5.63;;
31764;SDS011;18338;53.240;8.798;2022-08-25T09:44:30;8.35;;;4.95;;
31764;SDS011;18338;53.240;8.798;2022-08-25T09:47:05;6.32;;;5.72;;
31764;SDS011;18338;53.240;8.798;2022-08-25T09:49:43;6.28;;;5.00;;
31764;SDS011;18338;53.240;8.798;2022-08-25T09:57:43;5.50;;;5.00;;
31764;SDS011;18338;53.240;8.798;2022-08-25T10:00:19;10.07;;;5.20;;
31764;SDS011;18338;53.240;8.798;2022-08-25T10:08:30;9.65;;;4.97;;
31764;SDS011;18338;53.240;8.798;2022-08-25T10:11:00;9.05;;;5.85;;
31764;SDS011;18338;53.240;8.798;2022-08-25T10:13:35;7.25;;;4.55;;
31764;SDS011;18338;53.240;8.798;2022-08-25T10:16:12;6.03;;;5.30;;
31764;SDS011;18338;53.240;8.798;2022-08-25T10:18:59;4.82;;;4.40;;
31764;SDS011;18338;53.240;8.798;2022-08-25T10:21:36;8.55;;;5.20;;
31764;SDS011;18338;53.240;8.798;2022-08-25T10:24:05;6.13;;;4.90;;
31764;SDS011;18338;53.240;8.798;2022-08-25T10:26:41;8.45;;;5.13;;
31764;SDS011;18338;53.240;8.798;2022-08-25T10:50:08;11.77;;;5.65;;
31764;SDS011;18338;53.240;8.798;2022-08-25T10:55:59;6.00;;;4.78;;
31764;SDS011;18338;53.240;8.798;2022-08-25T11:04:40;7.35;;;5.18;;
31764;SDS011;18338;53.240;8.798;2022-08-25T11:07:24;5.45;;;4.95;;
31764;SDS011;18338;53.240;8.798;2022-08-25T11:10:43;7.38;;;5.03;;
31764;SDS011;18338;53.240;8.798;2022-08-25T11:12:53;7.32;;;5.32;;
31764;SDS011;18338;53.240;8.798;2022-08-25T11:15:34;6.25;;;5.00;;
31764;SDS011;18338;53.240;8.798;2022-08-25T11:18:26;7.22;;;5.03;;
31764;SDS011;18338;53.240;8.798;2022-08-25T11:21:00;6.68;;;4.57;;
31764;SDS011;18338;53.240;8.798;2022-08-25T11:23:36;5.45;;;4.72;;
31764;SDS011;18338;53.240;8.798;2022-08-25T11:26:16;6.57;;;5.18;;
31764;SDS011;18338;53.240;8.798;2022-08-25T11:29:00;6.13;;;4.97;;
31764;SDS011;18338;53.240;8.798;2022-08-25T11:31:38;7.82;;;4.60;;
31764;SDS011;18338;53.240;8.798;2022-08-25T11:34:12;5.38;;;4.85;;
31764;SDS011;18338;53.240;8.798;2022-08-25T11:36:54;7.10;;;4.65;;
31764;SDS011;18338;53.240;8.798;2022-08-25T11:50:59;4.72;;;4.43;;
31764;SDS011;18338;53.240;8.798;2022-08-25T11:53:47;5.40;;;4.90;;
31764;SDS011;18338;53.240;8.798;2022-08-25T11:56:31;6.50;;;4.10;;
31764;SDS011;18338;53.240;8.798;2022-08-25T11:59:05;5.00;;;4.47;;
31764;SDS011;18338;53.240;8.798;2022-08-25T12:04:09;7.25;;;5.28;;
31764;SDS011;18338;53.240;8.798;2022-08-25T12:12:27;5.63;;;4.75;;
31764;SDS011;18338;53.240;8.798;2022-08-25T12:15:22;8.25;;;5.32;;
31764;SDS011;18338;53.240;8.798;2022-08-25T12:26:02;5.85;;;5.25;;
31764;SDS011;18338;53.240;8.798;2022-08-25T12:28:51;5.25;;;4.80;;
31764;SDS011;18338;53.240;8.798;2022-08-25T12:31:43;5.75;;;4.85;;
31764;SDS011;18338;53.240;8.798;2022-08-25T12:34:39;5.57;;;4.57;;
31764;SDS011;18338;53.240;8.798;2022-08-25T12:37:21;6.25;;;5.00;;
31764;SDS011;18338;53.240;8.798;2022-08-25T12:47:41;6.32;;;4.35;;
31764;SDS011;18338;53.240;8.798;2022-08-25T12:50:26;4.78;;;4.38;;
31764;SDS011;18338;53.240;8.798;2022-08-25T12:53:14;5.63;;;5.13;;
31764;SDS011;18338;53.240;8.798;2022-08-25T12:55:47;5.50;;;4.80;;
31764;SDS011;18338;53.240;8.798;2022-08-25T12:58:17;6.00;;;5.13;;
31764;SDS011;18338;53.240;8.798;2022-08-25T13:00:57;7.40;;;4.85;;
31764;SDS011;18338;53.240;8.798;2022-08-25T13:04:53;7.45;;;4.95;;
31764;SDS011;18338;53.240;8.798;2022-08-25T13:07:09;6.35;;;4.90;;
31764;SDS011;18338;53.240;8.798;2022-08-25T13:09:45;8.32;;;4.93;;
31764;SDS011;18338;53.240;8.798;2022-08-25T13:12:36;5.10;;;4.45;;
31764;SDS011;18338;53.240;8.798;2022-08-25T13:15:36;5.32;;;4.80;;
31764;SDS011;18338;53.240;8.798;2022-08-25T13:20:54;6.18;;;4.82;;
31764;SDS011;18338;53.240;8.798;2022-08-25T13:23:46;7.38;;;4.22;;
31764;SDS011;18338;53.240;8.798;2022-08-25T13:26:16;5.40;;;4.90;;
31764;SDS011;18338;53.240;8.798;2022-08-25T13:29:10;5.65;;;4.43;;
31764;SDS011;18338;53.240;8.798;2022-08-25T13:32:23;5.30;;;4.90;;
31764;SDS011;18338;53.240;8.798;2022-08-25T13:34:40;7.10;;;5.20;;
31764;SDS011;18338;53.240;8.798;2022-08-25T13:37:15;7.88;;;5.53;;
31764;SDS011;18338;53.240;8.798;2022-08-25T13:42:55;6.32;;;4.60;;
31764;SDS011;18338;53.240;8.798;2022-08-25T13:45:28;5.13;;;4.65;;
31764;SDS011;18338;53.240;8.798;2022-08-25T13:47:57;5.60;;;4.88;;
31764;SDS011;18338;53.240;8.798;2022-08-25T13:53:02;8.35;;;4.72;;
31764;SDS011;18338;53.240;8.798;2022-08-25T13:55:51;7.00;;;5.03;;
31764;SDS011;18338;53.240;8.798;2022-08-25T13:58:25;5.03;;;4.57;;
31764;SDS011;18338;53.240;8.798;2022-08-25T14:12:27;7.63;;;4.60;;
31764;SDS011;18338;53.240;8.798;2022-08-25T14:14:59;6.10;;;4.30;;
31764;SDS011;18338;53.240;8.798;2022-08-25T14:17:36;6.18;;;4.60;;
31764;SDS011;18338;53.240;8.798;2022-08-25T14:20:14;4.88;;;4.40;;
31764;SDS011;18338;53.240;8.798;2022-08-25T14:22:43;5.03;;;4.43;;
31764;SDS011;18338;53.240;8.798;2022-08-25T14:25:10;5.53;;;4.10;;
31764;SDS011;18338;53.240;8.798;2022-08-25T14:27:40;6.80;;;4.85;;
31764;SDS011;18338;53.240;8.798;2022-08-25T14:30:28;9.35;;;4.50;;
31764;SDS011;18338;53.240;8.798;2022-08-25T14:32:56;5.63;;;4.20;;
31764;SDS011;18338;53.240;8.798;2022-08-25T14:35:23;5.63;;;4.50;;
31764;SDS011;18338;53.240;8.798;2022-08-25T14:37:50;6.90;;;4.13;;
31764;SDS011;18338;53.240;8.798;2022-08-25T14:40:17;9.57;;;4.28;;
31764;SDS011;18338;53.240;8.798;2022-08-25T14:42:45;5.40;;;4.18;;
31764;SDS011;18338;53.240;8.798;2022-08-25T14:45:13;4.88;;;4.32;;
31764;SDS011;18338;53.240;8.798;2022-08-25T14:47:41;5.35;;;4.55;;
31764;SDS011;18338;53.240;8.798;2022-08-25T14:50:14;5.22;;;4.60;;
31764;SDS011;18338;53.240;8.798;2022-08-25T14:52:45;5.55;;;4.75;;
31764;SDS011;18338;53.240;8.798;2022-08-25T14:55:11;6.30;;;4.28;;
31764;SDS011;18338;53.240;8.798;2022-08-25T14:57:57;5.55;;;3.90;;
31764;SDS011;18338;53.240;8.798;2022-08-25T15:00:23;5.95;;;4.68;;
31764;SDS011;18338;53.240;8.798;2022-08-25T15:02:51;5.65;;;4.68;;
31764;SDS011;18338;53.240;8.798;2022-08-25T15:05:21;8.07;;;4.60;;
31764;SDS011;18338;53.240;8.798;2022-08-25T15:07:53;5.13;;;4.20;;
31764;SDS011;18338;53.240;8.798;2022-08-25T15:10:58;5.78;;;4.30;;
31764;SDS011;18338;53.240;8.798;2022-08-25T15:13:25;7.18;;;4.53;;
31764;SDS011;18338;53.240;8.798;2022-08-25T15:15:53;4.55;;;4.15;;
31764;SDS011;18338;53.240;8.798;2022-08-25T15:18:23;4.80;;;4.30;;
31764;SDS011;18338;53.240;8.798;2022-08-25T15:20:51;6.72;;;5.00;;
31764;SDS011;18338;53.240;8.798;2022-08-25T15:23:18;5.47;;;4.45;;
31764;SDS011;18338;53.240;8.798;2022-08-25T15:25:45;4.93;;;4.10;;
31764;SDS011;18338;53.240;8.798;2022-08-25T15:28:18;8.48;;;4.20;;
31764;SDS011;18338;53.240;8.798;2022-08-25T15:30:47;3.95;;;3.60;;
31764;SDS011;18338;53.240;8.798;2022-08-25T15:33:14;5.43;;;3.75;;
31764;SDS011;18338;53.240;8.798;2022-08-25T15:35:42;4.50;;;4.10;;
31764;SDS011;18338;53.240;8.798;2022-08-25T15:38:10;7.53;;;4.45;;
31764;SDS011;18338;53.240;8.798;2022-08-25T15:40:37;5.68;;;4.10;;
31764;SDS011;18338;53.240;8.798;2022-08-25T15:43:04;4.95;;;4.55;;
31764;SDS011;18338;53.240;8.798;2022-08-25T15:45:32;6.47;;;4.20;;
31764;SDS011;18338;53.240;8.798;2022-08-25T15:48:01;4.75;;;3.97;;
31764;SDS011;18338;53.240;8.798;2022-08-25T15:50:28;4.68;;;4.07;;
31764;SDS011;18338;53.240;8.798;2022-08-25T15:52:55;8.20;;;4.60;;
31764;SDS011;18338;53.240;8.798;2022-08-25T15:55:22;5.95;;;4.38;;
31764;SDS011;18338;53.240;8.798;2022-08-25T15:57:48;7.00;;;4.05;;
31764;SDS011;18338;53.240;8.798;2022-08-25T16:00:15;6.38;;;4.70;;
31764;SDS011;18338;53.240;8.798;2022-08-25T16:02:43;7.40;;;4.53;;
31764;SDS011;18338;53.240;8.798;2022-08-25T16:05:11;8.13;;;4.15;;
31764;SDS011;18338;53.240;8.798;2022-08-25T16:07:40;4.82;;;4.30;;
31764;SDS011;18338;53.240;8.798;2022-08-25T16:10:07;4.88;;;4.47;;
31764;SDS011;18338;53.240;8.798;2022-08-25T16:12:36;6.15;;;4.65;;
31764;SDS011;18338;53.240;8.798;2022-08-25T16:15:08;7.18;;;4.57;;
31764;SDS011;18338;53.240;8.798;2022-08-25T16:17:37;4.50;;;4.10;;
31764;SDS011;18338;53.240;8.798;2022-08-25T16:20:09;5.57;;;4.65;;
31764;SDS011;18338;53.240;8.798;2022-08-25T16:22:39;6.00;;;4.32;;
31764;SDS011;18338;53.240;8.798;2022-08-25T16:25:06;5.32;;;4.82;;
31764;SDS011;18338;53.240;8.798;2022-08-25T16:27:33;5.25;;;4.75;;
31764;SDS011;18338;53.240;8.798;2022-08-25T16:30:04;5.38;;;4.30;;
31764;SDS011;18338;53.240;8.798;2022-08-25T16:32:32;6.72;;;4.72;;
31764;SDS011;18338;53.240;8.798;2022-08-25T16:34:59;5.45;;;4.95;;
31764;SDS011;18338;53.240;8.798;2022-08-25T16:37:26;6.15;;;4.70;;
31764;SDS011;18338;53.240;8.798;2022-08-25T16:39:53;5.40;;;4.80;;
31764;SDS011;18338;53.240;8.798;2022-08-25T16:42:20;5.60;;;4.53;;
31764;SDS011;18338;53.240;8.798;2022-08-25T16:44:47;5.93;;;4.72;;
31764;SDS011;18338;53.240;8.798;2022-08-25T16:47:18;6.70;;;4.78;;
31764;SDS011;18338;53.240;8.798;2022-08-25T16:49:50;7.60;;;4.50;;
31764;SDS011;18338;53.240;8.798;2022-08-25T16:52:18;6.75;;;4.53;;
31764;SDS011;18338;53.240;8.798;2022-08-25T16:55:05;8.98;;;5.10;;
31764;SDS011;18338;53.240;8.798;2022-08-25T16:57:40;6.30;;;4.60;;
31764;SDS011;18338;53.240;8.798;2022-08-25T17:00:14;7.00;;;4.38;;
31764;SDS011;18338;53.240;8.798;2022-08-25T17:02:42;9.23;;;4.40;;
31764;SDS011;18338;53.240;8.798;2022-08-25T17:05:10;8.52;;;4.80;;
31764;SDS011;18338;53.240;8.798;2022-08-25T17:07:37;6.15;;;4.85;;